sensor_id;sensor_type;location;lat;lon;timestamp;temperature;humidity
14779;DHT22;7481;53.750;10.570;2022-08-21T00:02:30;15.60;99.90
14779;DHT22;7481;53.750;10.570;2022-08-21T00:05:18;15.50;99.90
14779;DHT22;7481;53.750;10.570;2022-08-21T00:08:05;15.50;99.90
14779;DHT22;7481;53.750;10.570;2022-08-21T00:10:52;15.40;99.90
14779;DHT22;7481;53.750;10.570;2022-08-21T00:13:40;17.40;99.90
14779;DHT22;7481;53.750;10.570;2022-08-21T00:16:27;15.30;99.90
14779;DHT22;7481;53.750;10.570;2022-08-21T00:19:14;15.30;99.90
14779;DHT22;7481;53.750;10.570;2022-08-21T00:22:01;15.10;99.90
14779;DHT22;7481;53.750;10.570;2022-08-21T00:24:48;15.10;99.90
14779;DHT22;7481;53.750;10.570;2022-08-21T00:27:35;15.00;99.90
14779;DHT22;7481;53.750;10.570;2022-08-21T00:30:25;15.00;99.90
14779;DHT22;7481;53.750;10.570;2022-08-21T00:33:12;15.00;99.90
14779;DHT22;7481;53.750;10.570;2022-08-21T00:35:59;15.00;99.90
14779;DHT22;7481;53.750;10.570;2022-08-21T00:38:46;15.00;99.90
14779;DHT22;7481;53.750;10.570;2022-08-21T00:41:35;15.00;99.90
14779;DHT22;7481;53.750;10.570;2022-08-21T00:44:24;15.00;99.90
14779;DHT22;7481;53.750;10.570;2022-08-21T00:47:12;14.90;99.90
14779;DHT22;7481;53.750;10.570;2022-08-21T00:49:59;14.90;99.90
14779;DHT22;7481;53.750;10.570;2022-08-21T00:52:46;14.90;99.90
14779;DHT22;7481;53.750;10.570;2022-08-21T00:55:36;17.30;99.90
14779;DHT22;7481;53.750;10.570;2022-08-21T00:58:27;14.90;99.90
14779;DHT22;7481;53.750;10.570;2022-08-21T01:01:14;14.90;99.90
14779;DHT22;7481;53.750;10.570;2022-08-21T01:04:04;14.90;99.90
14779;DHT22;7481;53.750;10.570;2022-08-21T01:06:52;15.00;99.90
14779;DHT22;7481;53.750;10.570;2022-08-21T01:09:40;14.90;99.90
14779;DHT22;7481;53.750;10.570;2022-08-21T01:12:27;14.90;99.90
14779;DHT22;7481;53.750;10.570;2022-08-21T01:15:15;14.90;99.90
14779;DHT22;7481;53.750;10.570;2022-08-21T01:18:05;14.80;99.90
14779;DHT22;7481;53.750;10.570;2022-08-21T01:21:15;14.80;99.90
14779;DHT22;7481;53.750;10.570;2022-08-21T01:24:05;14.70;99.90
14779;DHT22;7481;53.750;10.570;2022-08-21T01:26:52;14.70;99.90
14779;DHT22;7481;53.750;10.570;2022-08-21T01:29:51;14.70;99.90
14779;DHT22;7481;53.750;10.570;2022-08-21T01:32:39;14.70;99.90
14779;DHT22;7481;53.750;10.570;2022-08-21T01:35:26;14.60;99.90
14779;DHT22;7481;53.750;10.570;2022-08-21T01:38:14;14.50;99.90
14779;DHT22;7481;53.750;10.570;2022-08-21T01:41:01;14.50;99.90
14779;DHT22;7481;53.750;10.570;2022-08-21T01:43:49;14.50;99.90
14779;DHT22;7481;53.750;10.570;2022-08-21T01:46:36;14.50;99.90
14779;DHT22;7481;53.750;10.570;2022-08-21T01:49:23;14.50;99.90
14779;DHT22;7481;53.750;10.570;2022-08-21T01:52:10;14.50;99.90
14779;DHT22;7481;53.750;10.570;2022-08-21T01:54:58;14.50;99.90
14779;DHT22;7481;53.750;10.570;2022-08-21T01:57:46;14.40;99.90
14779;DHT22;7481;53.750;10.570;2022-08-21T02:00:33;14.30;99.90
14779;DHT22;7481;53.750;10.570;2022-08-21T02:03:20;14.30;99.90
14779;DHT22;7481;53.750;10.570;2022-08-21T02:06:21;14.30;99.90
14779;DHT22;7481;53.750;10.570;2022-08-21T02:09:10;14.40;99.90
14779;DHT22;7481;53.750;10.570;2022-08-21T02:11:57;14.40;99.90
14779;DHT22;7481;53.750;10.570;2022-08-21T02:14:44;14.40;99.90
14779;DHT22;7481;53.750;10.570;2022-08-21T02:17:39;14.30;99.90
14779;DHT22;7481;53.750;10.570;2022-08-21T02:20:33;14.20;99.90
14779;DHT22;7481;53.750;10.570;2022-08-21T02:23:21;14.20;99.90
14779;DHT22;7481;53.750;10.570;2022-08-21T02:26:13;14.10;99.90
14779;DHT22;7481;53.750;10.570;2022-08-21T02:29:02;14.20;99.90
14779;DHT22;7481;53.750;10.570;2022-08-21T02:31:50;14.20;99.90
14779;DHT22;7481;53.750;10.570;2022-08-21T02:34:37;14.30;99.90
14779;DHT22;7481;53.750;10.570;2022-08-21T02:37:24;14.10;99.90
14779;DHT22;7481;53.750;10.570;2022-08-21T02:40:12;14.10;99.90
14779;DHT22;7481;53.750;10.570;2022-08-21T02:43:00;14.10;99.90
14779;DHT22;7481;53.750;10.570;2022-08-21T02:45:48;14.10;99.90
14779;DHT22;7481;53.750;10.570;2022-08-21T02:48:36;14.00;99.90
14779;DHT22;7481;53.750;10.570;2022-08-21T02:51:23;14.00;99.90
14779;DHT22;7481;53.750;10.570;2022-08-21T02:54:12;14.00;99.90
14779;DHT22;7481;53.750;10.570;2022-08-21T02:56:59;14.00;99.90
14779;DHT22;7481;53.750;10.570;2022-08-21T02:59:46;14.00;99.90
14779;DHT22;7481;53.750;10.570;2022-08-21T03:02:33;13.90;99.90
14779;DHT22;7481;53.750;10.570;2022-08-21T03:05:22;13.90;99.90
14779;DHT22;7481;53.750;10.570;2022-08-21T03:08:12;15.80;99.90
14779;DHT22;7481;53.750;10.570;2022-08-21T03:10:59;13.80;99.90
14779;DHT22;7481;53.750;10.570;2022-08-21T03:13:46;13.80;99.90
14779;DHT22;7481;53.750;10.570;2022-08-21T03:16:33;13.90;99.90
14779;DHT22;7481;53.750;10.570;2022-08-21T03:19:21;14.00;99.90
14779;DHT22;7481;53.750;10.570;2022-08-21T03:22:08;14.00;99.90
14779;DHT22;7481;53.750;10.570;2022-08-21T03:24:55;13.70;99.90
14779;DHT22;7481;53.750;10.570;2022-08-21T03:27:44;13.90;99.90
14779;DHT22;7481;53.750;10.570;2022-08-21T03:30:31;13.90;99.90
14779;DHT22;7481;53.750;10.570;2022-08-21T03:33:19;13.80;99.90
14779;DHT22;7481;53.750;10.570;2022-08-21T03:36:10;13.80;99.90
14779;DHT22;7481;53.750;10.570;2022-08-21T03:38:57;13.80;99.90
14779;DHT22;7481;53.750;10.570;2022-08-21T03:41:44;13.80;99.90
14779;DHT22;7481;53.750;10.570;2022-08-21T03:44:32;13.80;99.90
14779;DHT22;7481;53.750;10.570;2022-08-21T03:47:20;13.70;99.90
14779;DHT22;7481;53.750;10.570;2022-08-21T03:50:09;14.30;99.90
14779;DHT22;7481;53.750;10.570;2022-08-21T03:52:56;13.70;99.90
14779;DHT22;7481;53.750;10.570;2022-08-21T03:55:50;13.70;99.90
14779;DHT22;7481;53.750;10.570;2022-08-21T03:58:39;13.60;99.90
14779;DHT22;7481;53.750;10.570;2022-08-21T04:01:26;13.60;99.90
14779;DHT22;7481;53.750;10.570;2022-08-21T04:04:13;13.50;99.90
14779;DHT22;7481;53.750;10.570;2022-08-21T04:07:01;13.50;99.90
14779;DHT22;7481;53.750;10.570;2022-08-21T04:09:48;13.50;99.90
14779;DHT22;7481;53.750;10.570;2022-08-21T04:12:35;13.50;99.90
14779;DHT22;7481;53.750;10.570;2022-08-21T04:15:24;13.40;99.90
14779;DHT22;7481;53.750;10.570;2022-08-21T04:18:11;13.40;99.90
14779;DHT22;7481;53.750;10.570;2022-08-21T04:20:58;13.50;99.90
14779;DHT22;7481;53.750;10.570;2022-08-21T04:23:47;13.60;99.90
14779;DHT22;7481;53.750;10.570;2022-08-21T04:26:35;13.60;99.90
14779;DHT22;7481;53.750;10.570;2022-08-21T04:29:22;13.60;99.90
14779;DHT22;7481;53.750;10.570;2022-08-21T04:32:09;13.60;99.90
14779;DHT22;7481;53.750;10.570;2022-08-21T04:35:01;13.60;99.90
14779;DHT22;7481;53.750;10.570;2022-08-21T04:37:49;13.70;99.90
14779;DHT22;7481;53.750;10.570;2022-08-21T04:40:36;13.70;99.90
14779;DHT22;7481;53.750;10.570;2022-08-21T04:43:23;13.80;99.90
14779;DHT22;7481;53.750;10.570;2022-08-21T04:46:10;13.70;99.90
14779;DHT22;7481;53.750;10.570;2022-08-21T04:48:59;13.70;99.90
14779;DHT22;7481;53.750;10.570;2022-08-21T04:51:59;13.70;99.90
14779;DHT22;7481;53.750;10.570;2022-08-21T04:54:46;13.80;99.90
14779;DHT22;7481;53.750;10.570;2022-08-21T04:57:40;13.80;99.90
14779;DHT22;7481;53.750;10.570;2022-08-21T05:00:35;13.80;99.90
14779;DHT22;7481;53.750;10.570;2022-08-21T05:03:23;13.90;99.90
14779;DHT22;7481;53.750;10.570;2022-08-21T05:06:12;13.90;99.90
14779;DHT22;7481;53.750;10.570;2022-08-21T05:09:00;13.90;99.90
14779;DHT22;7481;53.750;10.570;2022-08-21T05:11:48;14.00;99.90
14779;DHT22;7481;53.750;10.570;2022-08-21T05:14:35;14.00;99.90
14779;DHT22;7481;53.750;10.570;2022-08-21T05:17:22;14.00;99.90
14779;DHT22;7481;53.750;10.570;2022-08-21T05:20:11;14.10;99.90
14779;DHT22;7481;53.750;10.570;2022-08-21T05:22:59;14.20;99.90
14779;DHT22;7481;53.750;10.570;2022-08-21T05:25:47;14.30;99.90
14779;DHT22;7481;53.750;10.570;2022-08-21T05:28:34;14.40;99.90
14779;DHT22;7481;53.750;10.570;2022-08-21T05:31:21;14.40;99.90
14779;DHT22;7481;53.750;10.570;2022-08-21T05:34:09;14.50;99.90
14779;DHT22;7481;53.750;10.570;2022-08-21T05:36:56;14.70;99.90
14779;DHT22;7481;53.750;10.570;2022-08-21T05:39:43;14.70;99.90
14779;DHT22;7481;53.750;10.570;2022-08-21T05:42:50;14.80;99.90
14779;DHT22;7481;53.750;10.570;2022-08-21T05:45:41;15.00;99.90
14779;DHT22;7481;53.750;10.570;2022-08-21T05:48:30;15.20;99.90
14779;DHT22;7481;53.750;10.570;2022-08-21T05:51:17;15.40;99.90
14779;DHT22;7481;53.750;10.570;2022-08-21T05:54:04;15.50;99.90
14779;DHT22;7481;53.750;10.570;2022-08-21T05:56:51;15.60;99.90
14779;DHT22;7481;53.750;10.570;2022-08-21T05:59:38;15.60;99.90
14779;DHT22;7481;53.750;10.570;2022-08-21T06:02:26;15.50;99.90
14779;DHT22;7481;53.750;10.570;2022-08-21T06:05:13;15.70;99.90
14779;DHT22;7481;53.750;10.570;2022-08-21T06:08:11;15.50;99.90
14779;DHT22;7481;53.750;10.570;2022-08-21T06:10:59;15.70;99.90
14779;DHT22;7481;53.750;10.570;2022-08-21T06:13:47;15.80;99.90
14779;DHT22;7481;53.750;10.570;2022-08-21T06:16:33;16.00;99.90
14779;DHT22;7481;53.750;10.570;2022-08-21T06:19:20;16.30;99.90
14779;DHT22;7481;53.750;10.570;2022-08-21T06:22:07;16.50;99.90
14779;DHT22;7481;53.750;10.570;2022-08-21T06:24:55;16.70;99.90
14779;DHT22;7481;53.750;10.570;2022-08-21T06:27:42;16.90;99.90
14779;DHT22;7481;53.750;10.570;2022-08-21T06:30:29;17.00;99.90
14779;DHT22;7481;53.750;10.570;2022-08-21T06:33:16;17.20;99.90
14779;DHT22;7481;53.750;10.570;2022-08-21T06:36:04;17.30;99.90
14779;DHT22;7481;53.750;10.570;2022-08-21T06:38:51;17.50;99.90
14779;DHT22;7481;53.750;10.570;2022-08-21T06:41:38;17.60;99.90
14779;DHT22;7481;53.750;10.570;2022-08-21T06:44:26;17.70;99.90
14779;DHT22;7481;53.750;10.570;2022-08-21T06:47:13;17.80;99.90
14779;DHT22;7481;53.750;10.570;2022-08-21T06:50:00;18.00;99.90
14779;DHT22;7481;53.750;10.570;2022-08-21T06:52:47;18.20;99.90
14779;DHT22;7481;53.750;10.570;2022-08-21T06:55:34;18.50;99.90
14779;DHT22;7481;53.750;10.570;2022-08-21T06:58:21;19.30;99.90
14779;DHT22;7481;53.750;10.570;2022-08-21T07:01:08;20.80;99.90
14779;DHT22;7481;53.750;10.570;2022-08-21T07:03:56;22.90;99.90
14779;DHT22;7481;53.750;10.570;2022-08-21T07:06:43;23.30;99.90
14779;DHT22;7481;53.750;10.570;2022-08-21T07:09:29;24.20;99.90
14779;DHT22;7481;53.750;10.570;2022-08-21T07:12:16;24.50;99.90
14779;DHT22;7481;53.750;10.570;2022-08-21T07:15:04;24.80;99.90
14779;DHT22;7481;53.750;10.570;2022-08-21T07:17:51;25.20;99.90
14779;DHT22;7481;53.750;10.570;2022-08-21T07:20:40;25.80;99.90
14779;DHT22;7481;53.750;10.570;2022-08-21T07:23:30;25.80;99.90
14779;DHT22;7481;53.750;10.570;2022-08-21T07:26:21;26.00;99.90
14779;DHT22;7481;53.750;10.570;2022-08-21T07:29:08;26.70;99.90
14779;DHT22;7481;53.750;10.570;2022-08-21T07:31:55;27.10;99.90
14779;DHT22;7481;53.750;10.570;2022-08-21T07:34:42;27.10;99.90
14779;DHT22;7481;53.750;10.570;2022-08-21T07:37:30;27.00;99.20
14779;DHT22;7481;53.750;10.570;2022-08-21T07:40:17;26.30;99.90
14779;DHT22;7481;53.750;10.570;2022-08-21T07:43:04;26.80;99.90
14779;DHT22;7481;53.750;10.570;2022-08-21T07:45:51;27.20;99.00
14779;DHT22;7481;53.750;10.570;2022-08-21T07:48:41;27.10;98.80
14779;DHT22;7481;53.750;10.570;2022-08-21T07:51:28;27.40;99.00
14779;DHT22;7481;53.750;10.570;2022-08-21T07:54:16;27.80;99.00
14779;DHT22;7481;53.750;10.570;2022-08-21T07:57:03;28.20;96.40
14779;DHT22;7481;53.750;10.570;2022-08-21T07:59:53;28.20;96.10
14779;DHT22;7481;53.750;10.570;2022-08-21T08:02:40;28.40;95.30
14779;DHT22;7481;53.750;10.570;2022-08-21T08:05:31;28.60;96.70
14779;DHT22;7481;53.750;10.570;2022-08-21T08:08:18;28.50;94.30
14779;DHT22;7481;53.750;10.570;2022-08-21T08:11:07;29.00;94.70
14779;DHT22;7481;53.750;10.570;2022-08-21T08:13:57;28.30;93.90
14779;DHT22;7481;53.750;10.570;2022-08-21T08:16:46;28.00;93.40
14779;DHT22;7481;53.750;10.570;2022-08-21T08:19:33;28.00;94.70
14779;DHT22;7481;53.750;10.570;2022-08-21T08:22:21;28.50;93.80
14779;DHT22;7481;53.750;10.570;2022-08-21T08:25:12;28.90;93.00
14779;DHT22;7481;53.750;10.570;2022-08-21T08:28:04;29.40;93.10
14779;DHT22;7481;53.750;10.570;2022-08-21T08:31:03;29.50;92.30
14779;DHT22;7481;53.750;10.570;2022-08-21T08:33:51;29.60;91.80
14779;DHT22;7481;53.750;10.570;2022-08-21T08:36:38;29.40;92.00
14779;DHT22;7481;53.750;10.570;2022-08-21T08:39:27;29.90;93.50
14779;DHT22;7481;53.750;10.570;2022-08-21T08:42:27;30.30;91.30
14779;DHT22;7481;53.750;10.570;2022-08-21T08:45:22;30.80;90.40
14779;DHT22;7481;53.750;10.570;2022-08-21T08:48:16;30.00;90.10
14779;DHT22;7481;53.750;10.570;2022-08-21T08:51:11;29.70;91.10
14779;DHT22;7481;53.750;10.570;2022-08-21T08:54:04;29.60;92.20
14779;DHT22;7481;53.750;10.570;2022-08-21T08:56:55;30.30;92.70
14779;DHT22;7481;53.750;10.570;2022-08-21T08:59:48;30.50;91.00
14779;DHT22;7481;53.750;10.570;2022-08-21T09:02:39;30.60;90.20
14779;DHT22;7481;53.750;10.570;2022-08-21T09:09:11;29.60;92.90
14779;DHT22;7481;53.750;10.570;2022-08-21T09:15:29;29.40;92.00
14779;DHT22;7481;53.750;10.570;2022-08-21T09:24:49;28.60;94.30
14779;DHT22;7481;53.750;10.570;2022-08-21T09:27:40;28.50;92.90
14779;DHT22;7481;53.750;10.570;2022-08-21T09:30:30;28.40;94.90
14779;DHT22;7481;53.750;10.570;2022-08-21T09:33:17;28.60;93.90
14779;DHT22;7481;53.750;10.570;2022-08-21T09:36:04;29.30;94.30
14779;DHT22;7481;53.750;10.570;2022-08-21T09:38:53;29.50;93.60
14779;DHT22;7481;53.750;10.570;2022-08-21T09:41:41;30.00;92.70
14779;DHT22;7481;53.750;10.570;2022-08-21T09:44:32;29.70;92.60
14779;DHT22;7481;53.750;10.570;2022-08-21T09:47:19;29.20;93.50
14779;DHT22;7481;53.750;10.570;2022-08-21T09:50:25;29.50;93.50
14779;DHT22;7481;53.750;10.570;2022-08-21T09:53:17;28.80;93.20
14779;DHT22;7481;53.750;10.570;2022-08-21T09:56:21;27.80;94.60
14779;DHT22;7481;53.750;10.570;2022-08-21T09:59:30;27.20;94.80
14779;DHT22;7481;53.750;10.570;2022-08-21T10:02:32;27.70;95.00
14779;DHT22;7481;53.750;10.570;2022-08-21T10:05:23;27.80;94.20
14779;DHT22;7481;53.750;10.570;2022-08-21T10:08:19;28.00;95.70
14779;DHT22;7481;53.750;10.570;2022-08-21T10:11:10;28.50;94.70
14779;DHT22;7481;53.750;10.570;2022-08-21T10:17:14;29.10;93.60
14779;DHT22;7481;53.750;10.570;2022-08-21T10:29:30;30.00;93.90
14779;DHT22;7481;53.750;10.570;2022-08-21T10:36:02;29.50;92.00
14779;DHT22;7481;53.750;10.570;2022-08-21T10:39:21;29.10;93.60
14779;DHT22;7481;53.750;10.570;2022-08-21T10:42:57;28.80;93.50
14779;DHT22;7481;53.750;10.570;2022-08-21T10:45:58;29.30;94.30
14779;DHT22;7481;53.750;10.570;2022-08-21T10:48:52;29.20;92.50
14779;DHT22;7481;53.750;10.570;2022-08-21T10:51:57;29.30;93.70
14779;DHT22;7481;53.750;10.570;2022-08-21T10:55:06;29.50;93.60
14779;DHT22;7481;53.750;10.570;2022-08-21T11:01:46;28.50;93.60
14779;DHT22;7481;53.750;10.570;2022-08-21T11:04:38;26.90;94.90
14779;DHT22;7481;53.750;10.570;2022-08-21T11:07:39;26.00;95.80
14779;DHT22;7481;53.750;10.570;2022-08-21T11:13:54;26.40;96.40
14779;DHT22;7481;53.750;10.570;2022-08-21T11:16:43;27.20;96.30
14779;DHT22;7481;53.750;10.570;2022-08-21T11:22:54;28.40;94.40
14779;DHT22;7481;53.750;10.570;2022-08-21T11:25:55;29.10;95.10
14779;DHT22;7481;53.750;10.570;2022-08-21T11:28:53;29.10;93.30
14779;DHT22;7481;53.750;10.570;2022-08-21T11:38:16;27.40;95.00
14779;DHT22;7481;53.750;10.570;2022-08-21T11:41:29;27.20;96.30
14779;DHT22;7481;53.750;10.570;2022-08-21T11:44:48;27.60;95.80
14779;DHT22;7481;53.750;10.570;2022-08-21T11:48:04;27.20;95.10
14779;DHT22;7481;53.750;10.570;2022-08-21T11:50:54;27.00;95.70
14779;DHT22;7481;53.750;10.570;2022-08-21T11:53:59;27.00;96.70
14779;DHT22;7481;53.750;10.570;2022-08-21T11:57:04;27.60;96.30
14779;DHT22;7481;53.750;10.570;2022-08-21T11:59:59;27.80;95.10
14779;DHT22;7481;53.750;10.570;2022-08-21T12:02:53;27.80;94.00
14779;DHT22;7481;53.750;10.570;2022-08-21T12:05:43;26.90;94.70
14779;DHT22;7481;53.750;10.570;2022-08-21T12:08:39;26.80;94.90
14779;DHT22;7481;53.750;10.570;2022-08-21T12:11:28;26.30;96.60
14779;DHT22;7481;53.750;10.570;2022-08-21T12:14:18;25.90;95.50
14779;DHT22;7481;53.750;10.570;2022-08-21T12:17:07;25.60;96.30
14779;DHT22;7481;53.750;10.570;2022-08-21T12:29:11;27.50;94.50
14779;DHT22;7481;53.750;10.570;2022-08-21T12:32:04;27.80;94.60
14779;DHT22;7481;53.750;10.570;2022-08-21T12:35:14;27.90;94.10
14779;DHT22;7481;53.750;10.570;2022-08-21T12:41:10;27.00;93.30
14779;DHT22;7481;53.750;10.570;2022-08-21T12:44:15;26.10;95.00
14779;DHT22;7481;53.750;10.570;2022-08-21T12:47:35;25.60;95.80
14779;DHT22;7481;53.750;10.570;2022-08-21T12:50:35;25.30;96.30
14779;DHT22;7481;53.750;10.570;2022-08-21T12:53:32;25.20;96.70
14779;DHT22;7481;53.750;10.570;2022-08-21T12:56:26;25.80;95.80
14779;DHT22;7481;53.750;10.570;2022-08-21T12:59:13;26.10;96.20
14779;DHT22;7481;53.750;10.570;2022-08-21T13:02:03;26.60;95.80
14779;DHT22;7481;53.750;10.570;2022-08-21T13:04:54;26.80;94.00
14779;DHT22;7481;53.750;10.570;2022-08-21T13:07:49;26.90;93.70
14779;DHT22;7481;53.750;10.570;2022-08-21T13:10:37;27.10;94.20
14779;DHT22;7481;53.750;10.570;2022-08-21T13:13:26;27.50;93.80
14779;DHT22;7481;53.750;10.570;2022-08-21T13:16:28;27.90;92.70
14779;DHT22;7481;53.750;10.570;2022-08-21T13:19:17;27.90;93.40
14779;DHT22;7481;53.750;10.570;2022-08-21T13:22:15;28.00;92.60
14779;DHT22;7481;53.750;10.570;2022-08-21T13:25:26;27.60;91.60
14779;DHT22;7481;53.750;10.570;2022-08-21T13:28:13;27.20;91.80
14779;DHT22;7481;53.750;10.570;2022-08-21T13:31:01;27.00;92.30
14779;DHT22;7481;53.750;10.570;2022-08-21T13:33:49;27.00;93.70
14779;DHT22;7481;53.750;10.570;2022-08-21T13:36:40;26.70;94.60
14779;DHT22;7481;53.750;10.570;2022-08-21T13:39:27;26.80;94.00
14779;DHT22;7481;53.750;10.570;2022-08-21T13:42:14;27.20;93.10
14779;DHT22;7481;53.750;10.570;2022-08-21T13:45:01;27.30;93.30
14779;DHT22;7481;53.750;10.570;2022-08-21T13:47:49;27.30;92.00
14779;DHT22;7481;53.750;10.570;2022-08-21T13:50:37;27.20;93.40
14779;DHT22;7481;53.750;10.570;2022-08-21T13:53:30;26.30;94.70
14779;DHT22;7481;53.750;10.570;2022-08-21T13:59:32;25.80;95.80
14779;DHT22;7481;53.750;10.570;2022-08-21T14:02:23;25.70;96.00
14779;DHT22;7481;53.750;10.570;2022-08-21T14:05:27;25.60;95.80
14779;DHT22;7481;53.750;10.570;2022-08-21T14:08:29;25.40;97.10
14779;DHT22;7481;53.750;10.570;2022-08-21T14:11:16;25.20;98.10
14779;DHT22;7481;53.750;10.570;2022-08-21T14:14:15;25.00;97.40
14779;DHT22;7481;53.750;10.570;2022-08-21T14:17:06;24.90;97.90
14779;DHT22;7481;53.750;10.570;2022-08-21T14:20:26;25.80;95.60
14779;DHT22;7481;53.750;10.570;2022-08-21T14:23:24;26.00;95.00
14779;DHT22;7481;53.750;10.570;2022-08-21T14:26:12;26.50;94.40
14779;DHT22;7481;53.750;10.570;2022-08-21T14:29:07;26.60;92.50
14779;DHT22;7481;53.750;10.570;2022-08-21T14:31:58;26.50;93.40
14779;DHT22;7481;53.750;10.570;2022-08-21T14:34:46;26.60;93.50
14779;DHT22;7481;53.750;10.570;2022-08-21T14:37:33;26.50;93.30
14779;DHT22;7481;53.750;10.570;2022-08-21T14:40:23;26.40;93.90
14779;DHT22;7481;53.750;10.570;2022-08-21T14:43:10;26.50;94.00
14779;DHT22;7481;53.750;10.570;2022-08-21T14:45:57;26.70;93.70
14779;DHT22;7481;53.750;10.570;2022-08-21T14:48:44;26.50;94.00
14779;DHT22;7481;53.750;10.570;2022-08-21T14:51:33;26.10;92.40
14779;DHT22;7481;53.750;10.570;2022-08-21T14:54:20;25.60;95.00
14779;DHT22;7481;53.750;10.570;2022-08-21T14:57:17;25.30;96.50
14779;DHT22;7481;53.750;10.570;2022-08-21T15:00:05;25.30;95.70
14779;DHT22;7481;53.750;10.570;2022-08-21T15:02:53;25.40;95.40
14779;DHT22;7481;53.750;10.570;2022-08-21T15:05:40;25.30;95.80
14779;DHT22;7481;53.750;10.570;2022-08-21T15:08:26;25.10;96.60
14779;DHT22;7481;53.750;10.570;2022-08-21T15:11:18;24.80;97.40
14779;DHT22;7481;53.750;10.570;2022-08-21T15:14:29;24.60;98.00
14779;DHT22;7481;53.750;10.570;2022-08-21T15:17:16;24.50;97.50
14779;DHT22;7481;53.750;10.570;2022-08-21T15:20:04;24.50;98.10
14779;DHT22;7481;53.750;10.570;2022-08-21T15:22:52;24.80;98.40
14779;DHT22;7481;53.750;10.570;2022-08-21T15:25:44;25.10;96.90
14779;DHT22;7481;53.750;10.570;2022-08-21T15:28:33;25.30;97.00
14779;DHT22;7481;53.750;10.570;2022-08-21T15:31:20;25.60;96.30
14779;DHT22;7481;53.750;10.570;2022-08-21T15:34:07;25.60;95.60
14779;DHT22;7481;53.750;10.570;2022-08-21T15:36:57;25.60;94.90
14779;DHT22;7481;53.750;10.570;2022-08-21T15:39:44;25.60;96.90
14779;DHT22;7481;53.750;10.570;2022-08-21T15:42:40;25.20;94.60
14779;DHT22;7481;53.750;10.570;2022-08-21T15:45:28;25.00;95.00
14779;DHT22;7481;53.750;10.570;2022-08-21T15:48:15;24.70;95.60
14779;DHT22;7481;53.750;10.570;2022-08-21T15:51:02;24.50;96.60
14779;DHT22;7481;53.750;10.570;2022-08-21T15:53:49;24.30;97.00
14779;DHT22;7481;53.750;10.570;2022-08-21T15:56:38;24.20;96.60
14779;DHT22;7481;53.750;10.570;2022-08-21T15:59:27;24.30;95.80
14779;DHT22;7481;53.750;10.570;2022-08-21T16:02:26;24.40;95.90
14779;DHT22;7481;53.750;10.570;2022-08-21T16:05:15;24.60;97.40
14779;DHT22;7481;53.750;10.570;2022-08-21T16:08:05;24.80;96.10
14779;DHT22;7481;53.750;10.570;2022-08-21T16:10:54;24.60;95.30
14779;DHT22;7481;53.750;10.570;2022-08-21T16:13:43;24.70;95.50
14779;DHT22;7481;53.750;10.570;2022-08-21T16:16:33;24.70;96.30
14779;DHT22;7481;53.750;10.570;2022-08-21T16:19:21;24.60;94.70
14779;DHT22;7481;53.750;10.570;2022-08-21T16:22:08;24.50;94.50
14779;DHT22;7481;53.750;10.570;2022-08-21T16:24:56;24.50;94.60
14779;DHT22;7481;53.750;10.570;2022-08-21T16:27:48;24.40;95.30
14779;DHT22;7481;53.750;10.570;2022-08-21T16:30:36;24.30;96.00
14779;DHT22;7481;53.750;10.570;2022-08-21T16:33:33;24.30;96.50
14779;DHT22;7481;53.750;10.570;2022-08-21T16:36:22;24.20;96.60
14779;DHT22;7481;53.750;10.570;2022-08-21T16:39:12;24.20;96.60
14779;DHT22;7481;53.750;10.570;2022-08-21T16:41:59;24.10;95.60
14779;DHT22;7481;53.750;10.570;2022-08-21T16:44:46;24.00;97.30
14779;DHT22;7481;53.750;10.570;2022-08-21T16:47:34;23.90;96.30
14779;DHT22;7481;53.750;10.570;2022-08-21T16:50:22;23.80;97.00
14779;DHT22;7481;53.750;10.570;2022-08-21T16:53:10;23.70;97.20
14779;DHT22;7481;53.750;10.570;2022-08-21T16:55:57;23.50;97.50
14779;DHT22;7481;53.750;10.570;2022-08-21T16:58:47;23.50;97.60
14779;DHT22;7481;53.750;10.570;2022-08-21T17:01:35;23.40;97.60
14779;DHT22;7481;53.750;10.570;2022-08-21T17:04:22;23.30;97.80
14779;DHT22;7481;53.750;10.570;2022-08-21T17:07:11;23.30;98.00
14779;DHT22;7481;53.750;10.570;2022-08-21T17:09:58;23.20;98.00
14779;DHT22;7481;53.750;10.570;2022-08-21T17:12:50;23.20;98.20
14779;DHT22;7481;53.750;10.570;2022-08-21T17:15:41;23.10;98.40
14779;DHT22;7481;53.750;10.570;2022-08-21T17:18:28;23.00;99.00
14779;DHT22;7481;53.750;10.570;2022-08-21T17:21:15;22.90;99.20
14779;DHT22;7481;53.750;10.570;2022-08-21T17:24:04;22.80;99.30
14779;DHT22;7481;53.750;10.570;2022-08-21T17:26:53;22.70;99.20
14779;DHT22;7481;53.750;10.570;2022-08-21T17:29:42;22.60;99.50
14779;DHT22;7481;53.750;10.570;2022-08-21T17:32:29;22.60;99.70
14779;DHT22;7481;53.750;10.570;2022-08-21T17:35:17;22.50;99.90
14779;DHT22;7481;53.750;10.570;2022-08-21T17:38:04;22.50;99.90
14779;DHT22;7481;53.750;10.570;2022-08-21T17:40:51;22.30;99.90
14779;DHT22;7481;53.750;10.570;2022-08-21T17:43:39;22.20;99.90
14779;DHT22;7481;53.750;10.570;2022-08-21T17:46:27;22.20;99.90
14779;DHT22;7481;53.750;10.570;2022-08-21T17:49:15;22.20;99.90
14779;DHT22;7481;53.750;10.570;2022-08-21T17:52:02;22.00;99.90
14779;DHT22;7481;53.750;10.570;2022-08-21T17:54:49;22.00;99.90
14779;DHT22;7481;53.750;10.570;2022-08-21T17:57:36;21.90;99.90
14779;DHT22;7481;53.750;10.570;2022-08-21T18:00:25;21.80;99.90
14779;DHT22;7481;53.750;10.570;2022-08-21T18:03:16;21.70;99.90
14779;DHT22;7481;53.750;10.570;2022-08-21T18:06:05;21.60;99.90
14779;DHT22;7481;53.750;10.570;2022-08-21T18:08:52;21.60;99.90
14779;DHT22;7481;53.750;10.570;2022-08-21T18:11:40;21.50;99.90
14779;DHT22;7481;53.750;10.570;2022-08-21T18:14:32;21.40;99.90
14779;DHT22;7481;53.750;10.570;2022-08-21T18:17:21;19.30;99.90
14779;DHT22;7481;53.750;10.570;2022-08-21T18:20:10;21.20;99.90
14779;DHT22;7481;53.750;10.570;2022-08-21T18:22:57;21.10;99.90
14779;DHT22;7481;53.750;10.570;2022-08-21T18:25:49;21.00;99.90
14779;DHT22;7481;53.750;10.570;2022-08-21T18:28:37;20.90;99.90
14779;DHT22;7481;53.750;10.570;2022-08-21T18:31:25;20.80;99.90
14779;DHT22;7481;53.750;10.570;2022-08-21T18:37:08;20.50;99.90
14779;DHT22;7481;53.750;10.570;2022-08-21T18:39:55;20.50;99.90
14779;DHT22;7481;53.750;10.570;2022-08-21T18:42:45;20.40;99.90
14779;DHT22;7481;53.750;10.570;2022-08-21T18:45:41;20.40;99.90
14779;DHT22;7481;53.750;10.570;2022-08-21T18:48:29;20.30;99.90
14779;DHT22;7481;53.750;10.570;2022-08-21T18:51:16;20.30;99.90
14779;DHT22;7481;53.750;10.570;2022-08-21T18:54:04;20.20;99.90
14779;DHT22;7481;53.750;10.570;2022-08-21T18:56:58;20.20;99.90
14779;DHT22;7481;53.750;10.570;2022-08-21T18:59:51;20.10;99.90
14779;DHT22;7481;53.750;10.570;2022-08-21T19:02:39;20.10;99.90